CheckWX is a tool to help pilots better visualize weather data.  It is not intended as a substitute for an official pre-flight weather briefing.

12:54:48 UTC

KSPS METAR
Sheppard AFB / Wichita Falls Municipal Airport
Wichita Falls, Texas, USA
Current

1 hour ago

KSPS 181152Z AUTO 04016KT 10SM CLR M03/M08 A3027 RMK AO2 SLP253 T10331078 10011 21033 53013 $
Observed
Feb-18 @ 11:52 UTC
Wind
  • 040° at 16 KTS
Visibility
10 SM
Flight Rules
VFR
Cloud Levels
  • Clear skies
Temperature
-3°C / 27°F
Dewpoint
-8°C / 18°F
Humidity
69%
Altimeter
30.27" Hg
Pressure
1025.3 hPa
Previous

2 hours ago

KSPS 181052Z AUTO 04018KT 10SM CLR M02/M07 A3025 RMK AO2 SLP244 T10221067 $
Observed
Feb-18 @ 10:52 UTC
Wind
  • 040° at 18 KTS
Visibility
10 SM
Flight Rules
VFR
Cloud Levels
  • Clear skies
Temperature
-2°C / 28°F
Dewpoint
-7°C / 19°F
Humidity
69%
Altimeter
30.25" Hg
Pressure
1024.4 hPa
Previous

3 hours ago

KSPS 180952Z AUTO 03017KT 10SM CLR M02/M06 A3024 RMK AO2 SLP242 T10171056 $
Observed
Feb-18 @ 09:52 UTC
Wind
  • 030° at 17 KTS
Visibility
10 SM
Flight Rules
VFR
Cloud Levels
  • Clear skies
Temperature
-2°C / 28°F
Dewpoint
-6°C / 21°F
Humidity
74%
Altimeter
30.24" Hg
Pressure
1024.2 hPa